logo
Search for airport 
image banner adimage banner adimage banner ad
image banner ad

ENSR - Soerkjosen

Located in Soerkjosen, Norway

ICAO - ENSR, IATA - SOJ

Data provided by Airmate  

General information

Coordinates: N69°47'12" E20°57'35"
Elevation is 16 feet MSL.
Magnetic variation is 10.7° East
View others Airports in Troms

Operational data

Special qualification required
Current time UTC:
Current local time:
Weather
METAR: ENSR 170450Z 15009KT CAVOK M02/M08 Q1014 RMK WIND RWY 32 15010KT WIND 1119FT 14011KT
TAF: TAF ENSR 170200Z 1703/1712 14008KT 9999 SCT050
View NOTAMs / SUP AIP / TFR affecting this airport [VIEW]
Communications frequencies: [VIEW]

Runways:

RWY identifierQFULength (ft)Width (ft)SurfaceLDA (ft)
14332798UNK
32332798UNK

Airport contact information

Address: Soerkjosen Norway

Satellite view of ENSR